Latest Weather Observations for Scotts Peak

IDT60801

Issued at 2:05 am EDT Friday 31 October 2014 (issued every 30 minutes, with the page automatically refreshed every 10 minutes)

About weather observations | Map of weather stations | Latest weather observations for TAS | Other Formats
Station Details ID: 097083 Name: SCOTTS PEAK DAM Lat: -43.04 Lon: 146.27 Height: 408.0 m
Data from the previous 72 hours. | See also: Recent months at Scotts Peak
Date/Time
EDT
Temp
°C
App
Temp
°C
Dew
Point
Rel
Hum
%
Delta-T
°C
Wind Press
QNH
hPa
Press
MSL
hPa
Rain
since 9 am
mm
Dir
 
Spd
km/h
Gust
km/h
Spd
kts
Gust
kts
31/02:00am 8.9 4.0 8.5 97 0.2 WNW 24 35 13 19 - - 2.2
31/01:30am 8.8 6.0 8.7 99 0.0 NNW 13 17 7 9 - - 1.6
31/01:00am 8.8 4.7 8.7 99 0.0 NNW 20 32 11 17 - - 1.4
31/12:30am 8.7 5.2 8.6 99 0.0 NNW 17 20 9 11 - - 1.4
31/12:00am 8.6 5.4 8.3 98 0.1 NNW 15 19 8 10 - - 1.0
 
Date/Time
EDT
Temp
°C
App
Temp
°C
Dew
Point
Rel
Hum
%
Delta-T
°C
Wind Press
QNH
hPa
Press
MSL
hPa
Rain
since 9 am
mm
Dir
 
Spd
km/h
Gust
km/h
Spd
kts
Gust
kts
30/11:30pm 8.5 4.9 8.2 98 0.1 N 17 22 9 12 - - 1.0
30/11:00pm 8.3 4.2 8.0 98 0.1 N 19 22 10 12 - - 1.0
30/10:30pm 8.2 3.5 7.9 98 0.1 NNW 22 26 12 14 - - 1.0
30/10:00pm 8.0 3.6 7.6 97 0.2 NW 20 26 11 14 - - 0.8
30/09:30pm 8.0 1.7 7.2 95 0.4 WNW 30 39 16 21 - - 0.8
30/09:00pm 8.1 1.7 6.9 92 0.6 NW 30 37 16 20 - - 0.8
30/08:30pm 8.2 1.8 7.0 92 0.6 NW 30 39 16 21 - - 0.8
30/08:00pm 8.3 1.4 6.6 89 0.8 NW 32 41 17 22 - - 0.8
30/07:30pm 8.7 2.5 6.2 84 1.2 NW 28 37 15 20 - - 0.8
30/07:00pm 8.8 1.8 6.2 84 1.2 NW 32 46 17 25 - - 0.8
30/06:30pm 8.7 1.7 6.7 87 1.0 NW 33 43 18 23 - - 0.8
30/06:00pm 8.7 2.2 6.7 87 1.0 NNW 30 39 16 21 - - 0.8
30/05:30pm 9.3 2.3 6.7 84 1.2 NNW 33 44 18 24 - - 0.8
30/05:00pm 10.1 4.1 7.0 81 1.5 NW 28 37 15 20 - - 0.8
30/04:30pm 9.5 2.5 6.0 79 1.6 WNW 32 46 17 25 - - 0.8
30/04:20pm 9.4 2.6 6.8 84 1.2 WNW 32 50 17 27 - - 0.8
30/04:00pm 9.3 1.4 6.2 81 1.5 WNW 37 50 20 27 - - 0.8
30/03:30pm 9.1 1.8 7.1 87 1.0 NW 35 43 19 23 - - 0.8
30/03:00pm 9.6 3.8 7.9 89 0.8 NW 28 37 15 20 - - 0.8
30/02:47pm 9.3 1.9 6.7 84 1.2 NW 35 56 19 30 - - 0.8
30/02:30pm 9.1 1.8 7.1 87 1.0 WNW 35 46 19 25 - - 0.8
30/02:02pm 9.8 3.0 7.9 88 0.9 WNW 33 52 18 28 - - 0.8
30/02:00pm 9.8 2.6 7.6 86 1.1 WNW 35 52 19 28 - - 0.8
30/01:30pm 9.9 3.6 7.3 84 1.3 WNW 30 50 16 27 - - 0.6
30/01:02pm 9.7 1.8 7.8 88 0.9 WNW 39 57 21 31 - - 0.6
30/01:00pm 9.6 1.2 7.5 87 1.0 WNW 41 57 22 31 - - 0.6
30/12:44pm 9.4 1.7 7.3 87 1.0 WNW 37 57 20 31 - - 0.6
30/12:30pm 9.1 3.2 7.5 90 0.8 WNW 28 43 15 23 - - 0.6
30/12:00pm 8.5 2.6 7.3 92 0.6 WNW 28 35 15 19 - - 0.6
30/11:30am 8.1 3.6 7.0 93 0.5 W 20 30 11 16 - - 0.6
30/11:00am 7.4 3.8 6.7 95 0.3 SW 15 22 8 12 - - 0.6
30/10:30am 7.6 3.2 7.2 97 0.2 W 20 30 11 16 - - 0.6
30/10:00am 7.3 3.4 7.0 98 0.1 SW 17 24 9 13 - - 0.6
30/09:30am 7.7 3.9 7.4 98 0.1 WNW 17 24 9 13 - - 0.2
30/09:00am 7.1 3.9 6.7 97 0.2 SSW 13 19 7 10 - - 4.4
30/08:30am 7.5 2.6 6.9 96 0.3 WSW 22 32 12 17 - - 4.2
30/08:00am 8.5 1.9 7.7 95 0.4 WNW 32 41 17 22 - - 4.0
30/07:30am 8.3 1.5 7.7 96 0.3 WNW 33 50 18 27 - - 4.0
30/07:00am 8.2 0.3 7.9 98 0.1 NW 39 54 21 29 - - 3.6
30/06:30am 8.0 1.2 7.6 97 0.2 NW 33 44 18 24 - - 3.6
30/06:00am 7.8 0.5 7.4 97 0.2 WNW 35 44 19 24 - - 3.6
30/05:30am 7.8 -1.1 7.5 98 0.1 NW 44 56 24 30 - - 3.4
30/05:00am 7.9 1.1 7.6 98 0.1 NW 33 43 18 23 - - 3.2
30/04:30am 8.0 2.1 7.7 98 0.1 NW 28 35 15 19 - - 3.2
30/04:00am 8.1 2.3 7.8 98 0.1 WNW 28 41 15 22 - - 3.2
30/03:30am 8.1 0.9 7.7 97 0.2 NW 35 54 19 29 - - 3.0
30/03:29am 8.2 1.0 7.8 97 0.2 WNW 35 54 19 29 - - 3.0
30/03:00am 8.2 1.6 7.9 98 0.1 WNW 32 41 17 22 - - 3.0
30/02:34am 8.2 1.1 7.9 98 0.1 NW 35 54 19 29 - - 2.8
30/02:30am 8.2 1.4 7.9 98 0.1 NW 33 43 18 23 - - 2.8
30/02:00am 8.1 1.5 7.8 98 0.1 NW 32 43 17 23 - - 2.6
30/01:30am 7.9 1.2 7.5 97 0.2 NW 32 39 17 21 - - 2.4
30/01:18am 7.9 1.2 7.3 96 0.3 NW 32 50 17 27 - - 2.0
30/01:00am 7.9 2.3 7.0 94 0.4 NW 26 35 14 19 - - 2.0
30/12:30am 8.0 -3.0 6.9 93 0.5 NW 54 72 29 39 - - 2.0
30/12:00am 8.0 -0.4 7.2 95 0.4 WNW 41 59 22 32 - - 2.0
 
Date/Time
EDT
Temp
°C
App
Temp
°C
Dew
Point
Rel
Hum
%
Delta-T
°C
Wind Press
QNH
hPa
Press
MSL
hPa
Rain
since 9 am
mm
Dir
 
Spd
km/h
Gust
km/h
Spd
kts
Gust
kts
29/11:30pm 8.0 0.0 7.4 96 0.3 WNW 39 54 21 29 - - 1.8
29/11:00pm 8.4 0.4 7.6 95 0.4 WNW 39 59 21 32 - - 1.6
29/10:43pm 8.6 -0.2 7.4 92 0.6 WNW 43 61 23 33 - - 1.6
29/10:30pm 8.8 0.0 7.1 89 0.8 WNW 43 56 23 30 - - 1.6
29/10:00pm 8.5 -0.9 7.3 92 0.6 WNW 46 67 25 36 - - 1.6
29/09:30pm 8.3 -1.8 7.4 94 0.4 WNW 50 70 27 38 - - 1.6
29/09:05pm 8.3 -2.9 7.5 95 0.4 WNW 56 74 30 40 - - 1.6
29/09:00pm 8.3 1.5 7.7 96 0.3 WNW 33 59 18 32 - - 1.6
29/08:34pm 8.6 0.4 8.0 96 0.3 WNW 41 59 22 32 - - 1.4
29/08:30pm 8.6 -0.2 8.0 96 0.3 NW 44 59 24 32 - - 1.2
29/08:04pm 8.6 -1.4 7.8 95 0.4 WNW 50 69 27 37 - - 1.2
29/08:00pm 8.6 -2.2 7.7 94 0.4 WNW 54 69 29 37 - - 1.2
29/07:30pm 9.3 0.0 7.7 90 0.8 WNW 46 69 25 37 - - 0.8
29/07:16pm 9.4 3.2 8.0 91 0.7 NW 30 52 16 28 - - 0.8
29/07:00pm 9.5 2.7 7.6 88 0.9 NW 33 43 18 23 - - 0.8
29/06:48pm 9.4 2.6 7.5 88 0.9 NW 33 43 18 23 - - 0.8
29/06:30pm 9.4 -1.7 7.8 90 0.8 WNW 56 78 30 42 - - 0.8
29/06:24pm 9.5 0.0 8.3 92 0.6 WNW 48 72 26 39 - - 0.8
29/06:00pm 9.8 2.9 8.9 94 0.5 NW 35 54 19 29 - - 0.6
29/05:45pm 9.7 3.7 8.5 92 0.6 NW 30 50 16 27 - - 0.6
29/05:30pm 9.5 3.8 8.3 92 0.6 WNW 28 35 15 19 - - 0.6
29/05:02pm 9.3 -0.7 7.7 90 0.8 NW 50 70 27 38 - - 0.6
29/05:00pm 9.3 -0.4 7.7 90 0.8 NW 48 65 26 35 - - 0.6
29/04:58pm 9.3 0.6 7.7 90 0.8 NW 43 52 23 28 - - 0.6
29/04:35pm 9.2 -2.9 7.8 91 0.7 WNW 61 80 33 43 - - 0.6
29/04:33pm 9.2 -2.1 7.8 91 0.7 WNW 57 72 31 39 - - 0.6
29/04:30pm 9.4 -6.3 8.0 91 0.7 NW 80 104 43 56 - - 0.6
29/04:28pm 9.6 -2.0 8.2 91 0.7 WNW 59 89 32 48 - - 0.6
29/04:25pm 9.8 -1.2 8.6 92 0.6 WNW 56 67 30 36 - - 0.6
29/04:18pm 9.9 3.4 8.8 93 0.6 NW 33 54 18 29 - - 0.4
29/04:00pm 9.8 3.8 8.7 93 0.6 NW 30 37 16 20 - - 0.4
29/03:45pm 9.8 -0.4 8.4 91 0.7 WNW 52 70 28 38 - - 0.2
29/03:44pm 9.8 -1.2 8.4 91 0.7 NW 56 70 30 38 - - 0.2
29/03:40pm 10.1 3.5 8.4 89 0.8 W 33 54 18 29 - - 0.2
29/03:30pm 10.6 3.7 9.0 90 0.8 NW 35 46 19 25 - - 0.2
29/03:01pm 10.9 3.5 8.3 84 1.3 NW 37 56 20 30 - - 0.2
29/03:00pm 10.9 3.8 8.1 83 1.4 NW 35 52 19 28 - - 0.2
29/02:44pm 11.0 3.5 6.4 73 2.2 W 35 50 19 27 - - 0.2
29/02:30pm 12.0 0.5 7.3 73 2.3 WNW 57 83 31 45 - - 0.2
29/02:00pm 11.9 -0.9 6.2 68 2.7 WNW 63 87 34 47 - - 0.2
29/01:34pm 10.7 -0.7 7.4 80 1.6 WNW 57 76 31 41 - - 0.2
29/01:30pm 11.1 -0.9 8.1 82 1.5 WNW 61 78 33 42 - - 0.2
29/01:03pm 10.7 -3.9 7.6 81 1.5 WNW 74 95 40 51 - - 0.2
29/01:00pm 10.5 -5.3 7.2 80 1.6 WNW 80 91 43 49 - - 0.2
29/12:30pm 10.4 -1.4 7.6 83 1.4 WNW 59 80 32 43 - - 0.2
29/12:17pm 10.8 -2.7 6.7 76 2.0 WNW 67 85 36 46 - - 0.2
29/12:16pm 10.9 -2.1 7.0 77 1.9 WNW 65 76 35 41 - - 0.2
29/12:01pm 10.1 2.2 7.9 86 1.1 WNW 39 57 21 31 - - 0.2
29/12:00pm 10.2 2.0 8.1 87 1.0 WNW 41 57 22 31 - - 0.2
29/11:46am 10.4 3.1 7.3 81 1.5 NW 35 54 19 29 - - 0.2
29/11:30am 10.3 1.7 6.6 78 1.8 NW 41 52 22 28 - - 0.2
29/11:00am 9.3 -1.7 6.9 85 1.2 WNW 54 69 29 37 - - 0.2
29/10:30am 8.9 -1.4 6.3 84 1.2 WNW 50 72 27 39 - - 0.2
29/10:06am 8.4 -2.4 7.5 94 0.4 WNW 54 72 29 39 - - 0.2
29/10:00am 8.0 -3.5 7.1 94 0.4 WNW 57 74 31 40 - - 0.2
29/09:30am 7.8 -1.8 6.4 91 0.7 WNW 46 65 25 35 - - 0.0
29/09:28am 7.7 -1.9 6.3 91 0.7 NW 46 65 25 35 - - 0.0
29/09:00am 7.2 -3.1 6.3 94 0.4 NW 50 67 27 36 - - 1.4
29/08:30am 7.2 -3.4 5.3 88 0.9 NW 50 72 27 39 - - 1.4
29/08:23am 7.1 -2.7 5.1 87 0.9 WNW 46 72 25 39 - - 1.4
29/08:00am 7.0 -2.0 4.7 85 1.0 NW 41 56 22 30 - - 1.4
29/07:30am 6.8 -4.4 3.8 81 1.3 NW 52 67 28 36 - - 1.4
29/07:00am 6.5 -3.5 4.3 86 1.0 NW 46 57 25 31 - - 1.4
29/06:30am 6.3 -3.2 4.1 86 1.0 NW 43 54 23 29 - - 1.4
29/06:00am 6.0 -3.2 3.5 84 1.1 WNW 41 48 22 26 - - 1.4
29/05:30am 5.6 -4.1 3.1 84 1.1 NW 43 50 23 27 - - 1.4
29/05:00am 5.8 -3.0 3.5 85 1.0 NW 39 52 21 28 - - 1.4
29/04:30am 5.3 -2.8 3.0 85 1.0 NW 35 43 19 23 - - 1.4
29/04:00am 5.5 -3.1 2.7 82 1.2 WNW 37 50 20 27 - - 1.4
29/03:30am 5.3 -4.5 2.0 79 1.4 WNW 43 52 23 28 - - 1.4
29/03:04am 5.1 -3.6 1.9 80 1.3 WNW 37 56 20 30 - - 1.4
29/03:00am 5.1 -3.2 1.9 80 1.3 WNW 35 46 19 25 - - 1.4
29/02:30am 4.7 -4.3 2.2 84 1.0 WNW 39 50 21 27 - - 1.4
29/02:07am 5.7 -3.1 1.2 73 1.8 WNW 37 57 20 31 - - 1.4
29/02:00am 5.7 -3.6 0.9 71 1.9 WNW 39 46 21 25 - - 1.4
29/01:30am 5.7 -3.3 0.3 68 2.1 W 37 61 20 33 - - 1.4
29/01:00am 5.7 -3.9 -1.2 61 2.6 W 39 57 21 31 - - 1.4
29/12:30am 5.6 -4.0 -1.5 60 2.7 W 39 65 21 35 - - 1.4
29/12:00am 5.8 -5.5 -1.3 60 2.7 W 48 72 26 39 - - 1.4
 
Date/Time
EDT
Temp
°C
App
Temp
°C
Dew
Point
Rel
Hum
%
Delta-T
°C
Wind Press
QNH
hPa
Press
MSL
hPa
Rain
since 9 am
mm
Dir
 
Spd
km/h
Gust
km/h
Spd
kts
Gust
kts
28/11:54pm 5.6 -4.4 -1.5 60 2.7 W 41 72 22 39 - - 1.4
28/11:53pm 5.6 -3.6 -1.5 60 2.7 W 37 46 20 25 - - 1.4
28/11:30pm 5.7 -7.8 -1.9 58 2.9 W 59 83 32 45 - - 1.4
28/11:00pm 5.8 -6.4 -2.5 55 3.1 W 52 80 28 43 - - 1.4
28/10:30pm 5.8 -5.9 -1.8 58 2.9 W 50 70 27 38 - - 1.4
28/10:00pm 6.0 -6.8 -0.9 61 2.7 WNW 56 78 30 42 - - 1.4
28/09:30pm 6.0 -6.1 -1.6 58 2.9 WNW 52 76 28 41 - - 1.4
28/09:00pm 5.8 -5.8 -0.5 64 2.5 WNW 50 85 27 46 - - 1.4
28/08:30pm 6.0 -7.0 -1.6 58 2.9 WNW 57 91 31 49 - - 1.4
28/08:00pm 6.1 -7.2 -1.1 60 2.8 WNW 59 87 32 47 - - 1.4
28/07:30pm 6.2 -7.4 -0.1 64 2.5 WNW 61 87 33 47 - - 1.4
28/07:00pm 6.0 -7.6 0.1 66 2.3 WNW 61 80 33 43 - - 1.4
28/06:30pm 5.1 -8.2 1.6 78 1.4 WNW 61 89 33 48 - - 1.2
28/06:05pm 6.4 -7.2 0.1 64 2.5 WNW 61 106 33 57 - - 1.2
28/06:00pm 6.1 -6.4 1.1 70 2.0 WNW 56 80 30 43 - - 1.2
28/05:53pm 5.9 -5.0 1.2 72 1.9 W 48 70 26 38 - - 1.2
28/05:50pm 5.8 -4.7 1.2 72 1.9 W 46 56 25 30 - - 1.2
28/05:30pm 5.9 -8.6 1.1 71 1.9 WNW 67 96 36 52 - - 1.2
28/05:00pm 6.9 -7.2 -1.3 56 3.2 W 63 85 34 46 - - 1.2
28/04:30pm 8.0 -6.2 1.2 62 2.8 W 65 95 35 51 - - 1.0
28/04:00pm 6.8 -7.7 1.1 67 2.3 W 67 93 36 50 - - 1.0
28/03:39pm 4.6 -9.5 1.3 79 1.3 W 65 91 35 49 - - 1.0
28/03:37pm 4.7 -9.4 1.4 79 1.3 W 65 72 35 39 - - 1.0
28/03:30pm 5.9 -11.9 0.0 66 2.3 WNW 83 107 45 58 - - 1.0
28/03:00pm 6.7 -8.5 0.6 65 2.5 WNW 70 98 38 53 - - 0.8
28/02:30pm 7.3 -7.3 0.5 62 2.8 WNW 67 100 36 54 - - 0.8
28/02:20pm 7.0 -6.2 0.2 62 2.7 W 59 80 32 43 - - 0.8
28/02:00pm 5.1 -11.4 1.9 80 1.3 WNW 78 117 42 63 - - 0.8
28/01:56pm 3.8 -13.2 1.0 82 1.1 W 80 130 43 70 - - 0.8
28/01:50pm 4.1 -16.6 -0.7 71 1.8 W 98 130 53 70 - - 0.8
28/01:40pm 7.4 -9.2 -1.0 55 3.3 WNW 76 130 41 70 - - 0.8
28/01:30pm 7.7 -7.0 0.2 59 3.0 W 67 106 36 57 - - 0.8
28/01:00pm 6.7 -9.5 -1.2 57 3.1 WNW 74 106 40 57 - - 0.8
28/12:30pm 7.2 -9.4 1.3 66 2.4 WNW 78 104 42 56 - - 0.8
28/12:00pm 4.0 -11.7 -0.2 74 1.6 WNW 72 113 39 61 - - 0.6
28/11:53am 4.7 -10.6 0.1 72 1.8 WNW 70 113 38 61 - - 0.4
28/11:30am 7.0 -8.6 0.2 62 2.7 WNW 72 95 39 51 - - 0.4
28/11:16am 5.7 -11.4 0.5 69 2.1 WNW 80 98 43 53 - - 0.4
28/11:08am 5.4 -11.9 1.5 76 1.6 WNW 82 98 44 53 - - 0.4
28/11:05am 4.8 -7.7 2.3 84 1.0 WNW 57 76 31 41 - - 0.4
28/11:04am 4.7 -7.7 1.7 81 1.2 WNW 56 65 30 35 - - 0.4
28/11:00am 4.1 -12.2 1.0 80 1.2 WNW 76 109 41 59 - - 0.4
28/10:46am 6.2 -10.2 0.3 66 2.4 WNW 76 96 41 52 - - 0.2
28/10:30am 5.8 -6.6 1.2 72 1.9 WNW 56 83 30 45 - - 0.2
28/10:24am 5.4 -6.7 0.8 72 1.8 WNW 54 72 29 39 - - 0.2
28/10:23am 5.2 -6.8 1.3 76 1.6 WNW 54 61 29 33 - - 0.2
28/10:12am 5.4 -10.4 1.3 75 1.7 WNW 74 93 40 50 - - 0.2
28/10:11am 5.3 -10.8 2.0 79 1.4 WNW 76 93 41 50 - - 0.2
28/10:00am 4.6 -7.6 2.5 86 0.9 WNW 56 83 30 45 - - 0.2
28/09:31am 3.4 -11.2 1.0 84 0.9 WNW 67 106 36 57 - - 0.2
28/09:30am 3.4 -10.7 1.3 86 0.8 WNW 65 87 35 47 - - 0.2
28/09:00am 3.9 -10.6 1.3 83 1.0 WNW 67 95 36 51 - - 19.6
28/08:30am 2.9 -12.1 1.6 91 0.5 WNW 70 93 38 50 - - 19.6
28/08:00am 3.9 -10.4 2.4 90 0.6 WNW 67 91 36 49 - - 19.0
28/07:30am 3.9 -9.3 2.6 91 0.5 NW 61 80 33 43 - - 18.8
28/07:09am 3.5 -9.8 2.0 90 0.6 WNW 61 95 33 51 - - 18.8
28/07:04am 2.8 -9.7 1.9 94 0.4 WNW 57 76 31 41 - - 18.6
28/07:00am 2.6 -10.4 1.4 92 0.5 WNW 59 74 32 40 - - 18.4
28/06:30am 4.1 -10.1 0.8 79 1.3 WNW 65 98 35 53 - - 17.8
28/06:23am 4.3 -12.9 0.1 74 1.6 WNW 80 98 43 53 - - 17.8
28/06:00am 5.5 -7.1 1.1 73 1.8 WNW 57 82 31 44 - - 17.6
28/05:30am 5.5 -7.5 1.2 74 1.7 WNW 59 80 32 43 - - 17.6
28/05:16am 5.1 -7.5 1.4 77 1.5 WNW 57 96 31 52 - - 17.6
28/05:01am 5.2 -6.4 2.0 80 1.3 WNW 52 70 28 38 - - 17.6
28/05:00am 5.4 -6.5 1.9 78 1.4 WNW 54 70 29 38 - - 17.6
28/04:30am 5.5 -7.7 2.5 81 1.3 W 61 87 33 47 - - 17.6
28/04:00am 5.0 -9.7 3.3 89 0.7 W 70 98 38 53 - - 17.6
28/03:30am 6.2 -9.4 5.0 92 0.5 WNW 76 107 41 58 - - 17.2
28/03:24am 6.4 -8.3 5.5 94 0.4 WNW 72 102 39 55 - - 17.0
28/03:00am 5.6 -7.9 5.0 96 0.3 WNW 65 83 35 45 - - 16.6
28/02:41am 5.6 -9.6 4.9 95 0.3 WNW 74 93 40 50 - - 15.4
28/02:40am 5.6 -9.2 5.0 96 0.3 WNW 72 85 39 46 - - 15.4
28/02:30am 6.0 -12.4 5.3 95 0.3 WNW 91 120 49 65 - - 14.8
28/02:20am 6.5 -10.9 6.1 97 0.2 WNW 87 139 47 75 - - 14.0
28/02:15am 6.9 -9.1 6.3 96 0.3 WNW 80 120 43 65 - - 13.6
28/02:12am 6.7 -9.0 6.1 96 0.3 WNW 78 100 42 54 - - 13.2
28/02:07am 6.7 -13.7 5.7 93 0.5 WNW 102 122 55 66 - - 12.8
28/02:06am 6.7 -9.8 5.8 94 0.4 WNW 82 120 44 65 - - 12.6

Other Formats:

Comma delimited format used in spreadsheet applications
http://www.bom.gov.au/fwo/IDT60801/IDT60801.95958.axf

JavaScript Object Notation format (JSON) in row-major order
http://www.bom.gov.au/fwo/IDT60801/IDT60801.95958.json